createdAt,value
2018-01-02T00:00:26.655Z,11.26
2018-01-02T00:02:55.020Z,11.28
2018-01-02T00:05:23.369Z,11.38
2018-01-02T00:07:51.813Z,11.33
2018-01-02T00:10:20.212Z,11.26
2018-01-02T00:12:48.560Z,11.32
2018-01-02T00:15:16.968Z,11.25
2018-01-02T00:17:45.361Z,11.04
2018-01-02T00:20:13.741Z,10.87
2018-01-02T00:22:42.164Z,11.25
2018-01-02T00:25:10.588Z,11.17
2018-01-02T00:27:39.850Z,11.23
2018-01-02T00:30:08.229Z,11.41
2018-01-02T00:32:36.633Z,11.21
2018-01-02T00:35:05.034Z,10.97
2018-01-02T00:37:33.396Z,11.07
2018-01-02T00:40:01.780Z,10.63
2018-01-02T00:42:30.119Z,10.61
2018-01-02T00:44:58.472Z,10.76
2018-01-02T00:47:26.872Z,10.54
2018-01-02T00:49:55.280Z,10.40
2018-01-02T00:52:23.660Z,10.40
2018-01-02T00:54:52.007Z,10.78
2018-01-02T00:57:21.270Z,10.78
2018-01-02T00:59:49.620Z,10.80
2018-01-02T01:02:17.981Z,10.60
2018-01-02T01:04:46.326Z,10.69
2018-01-02T01:07:15.164Z,10.77
2018-01-02T01:09:43.527Z,10.85
2018-01-02T01:12:11.907Z,10.55
2018-01-02T01:14:40.259Z,10.58
2018-01-02T01:17:08.605Z,10.11
2018-01-02T01:19:37.028Z,10.24
2018-01-02T01:22:05.433Z,10.42
2018-01-02T01:24:33.782Z,10.70
2018-01-02T01:27:02.176Z,10.82
2018-01-02T01:29:30.573Z,10.57
2018-01-02T01:31:58.954Z,10.84
2018-01-02T01:34:27.308Z,10.96
2018-01-02T01:36:55.656Z,11.02
2018-01-02T01:39:24.400Z,11.14
2018-01-02T01:41:52.753Z,11.16
2018-01-02T01:44:21.155Z,11.20
2018-01-02T01:46:49.535Z,10.86
2018-01-02T01:49:18.190Z,11.10
2018-01-02T01:51:46.597Z,11.08
2018-01-02T01:54:14.948Z,10.93
2018-01-02T01:56:43.354Z,10.97
2018-01-02T01:59:11.720Z,10.52
2018-01-02T02:01:40.075Z,10.40
2018-01-02T02:04:08.456Z,10.36
2018-01-02T02:06:36.796Z,10.35
2018-01-02T02:09:05.136Z,10.25
2018-01-02T02:11:33.493Z,10.38
2018-01-02T02:14:01.896Z,10.50
2018-01-02T02:16:30.246Z,10.73
2018-01-02T02:18:58.596Z,10.67
2018-01-02T02:21:27.340Z,10.51
2018-01-02T02:23:55.728Z,10.51
2018-01-02T02:26:24.091Z,10.13
2018-01-02T02:28:52.456Z,10.01
2018-01-02T02:31:20.813Z,9.89
2018-01-02T02:33:49.554Z,10.11
2018-01-02T02:36:17.915Z,9.90
2018-01-02T02:38:46.273Z,9.94
2018-01-02T02:41:14.621Z,10.13
2018-01-02T02:43:43.466Z,10.05
2018-01-02T02:46:11.821Z,9.97
2018-01-02T02:48:40.160Z,9.83
2018-01-02T02:51:08.520Z,9.56
2018-01-02T02:53:36.865Z,9.68
2018-01-02T02:56:05.214Z,10.03
2018-01-02T02:58:33.558Z,10.18
2018-01-02T03:01:02.025Z,10.15
2018-01-02T03:03:30.368Z,9.60
2018-01-02T03:05:58.729Z,9.51
2018-01-02T03:08:27.315Z,9.28
2018-01-02T03:10:55.731Z,9.54
2018-01-02T03:13:24.212Z,9.48
2018-01-02T03:15:52.552Z,9.37
2018-01-02T03:18:20.896Z,9.25
2018-01-02T03:20:49.277Z,9.28
2018-01-02T03:23:17.760Z,9.42
2018-01-02T03:25:46.104Z,9.72
2018-01-02T03:28:14.439Z,9.66
2018-01-02T03:30:42.805Z,9.58
2018-01-02T03:33:11.580Z,9.50
2018-01-02T03:35:40.143Z,9.53
2018-01-02T03:38:08.574Z,9.36
2018-01-02T03:40:37.408Z,9.33
2018-01-02T03:43:05.891Z,9.32
2018-01-02T03:45:34.237Z,9.40
2018-01-02T03:48:02.576Z,9.40
2018-01-02T03:50:31.135Z,9.45
2018-01-02T03:52:59.485Z,9.81
2018-01-02T03:55:28.023Z,9.83
2018-01-02T03:57:56.359Z,9.62
2018-01-02T04:00:24.702Z,9.67
2018-01-02T04:02:53.071Z,9.49
2018-01-02T04:05:21.884Z,9.81
2018-01-02T04:07:50.284Z,9.99
2018-01-02T04:10:18.644Z,10.22
2018-01-02T04:12:47.059Z,9.98
2018-01-02T04:15:15.413Z,9.95
2018-01-02T04:17:44.511Z,9.78
2018-01-02T04:20:12.895Z,9.98
2018-01-02T04:22:41.280Z,10.10
2018-01-02T04:25:09.729Z,10.36
2018-01-02T04:27:38.068Z,10.30
2018-01-02T04:30:06.423Z,10.16
2018-01-02T04:32:34.783Z,10.32
2018-01-02T04:35:03.888Z,10.30
2018-01-02T04:37:32.267Z,10.04
2018-01-02T04:40:00.617Z,10.27
2018-01-02T04:42:28.988Z,10.19
2018-01-02T04:44:57.334Z,10.42
2018-01-02T04:47:26.092Z,10.66
2018-01-02T04:49:54.476Z,10.56
2018-01-02T04:52:22.849Z,10.34
2018-01-02T04:54:51.204Z,10.51
2018-01-02T04:57:19.578Z,10.71
2018-01-02T04:59:47.932Z,10.66
2018-01-02T05:02:16.683Z,10.82
2018-01-02T05:04:45.038Z,10.84
2018-01-02T05:07:13.435Z,10.76
2018-01-02T05:09:41.791Z,10.76
2018-01-02T05:12:10.149Z,10.56
2018-01-02T05:14:38.566Z,10.70
2018-01-02T05:17:06.947Z,10.71
2018-01-02T05:19:35.327Z,10.80
2018-01-02T05:22:04.607Z,11.03
2018-01-02T05:24:32.961Z,11.17
2018-01-02T05:27:01.507Z,11.13
2018-01-02T05:29:29.863Z,11.23
2018-01-02T05:31:58.233Z,11.36
2018-01-02T05:34:26.621Z,11.48
2018-01-02T05:36:54.974Z,11.50
2018-01-02T05:39:23.987Z,11.49
2018-01-02T05:41:52.361Z,11.41
2018-01-02T05:44:20.711Z,11.43
2018-01-02T05:46:49.079Z,11.44
2018-01-02T05:49:17.843Z,11.34
2018-01-02T05:51:46.288Z,11.11
2018-01-02T05:54:14.644Z,11.27
2018-01-02T05:56:43.052Z,11.32
2018-01-02T05:59:11.420Z,11.39
2018-01-02T06:01:39.769Z,11.44
2018-01-02T06:04:08.116Z,11.55
2018-01-02T06:06:36.488Z,11.59
2018-01-02T06:09:04.854Z,11.67
2018-01-02T06:11:33.215Z,11.44
2018-01-02T06:14:01.568Z,11.62
2018-01-02T06:16:29.936Z,11.47
2018-01-02T06:18:58.722Z,11.53
2018-01-02T06:21:27.490Z,11.62
2018-01-02T06:23:55.938Z,11.59
2018-01-02T06:26:24.283Z,11.47
2018-01-02T06:28:53.349Z,11.32
2018-01-02T06:31:21.784Z,11.30
2018-01-02T06:33:50.152Z,11.41
2018-01-02T06:36:18.564Z,11.28
2018-01-02T06:38:46.918Z,11.06
2018-01-02T06:41:15.288Z,10.58
2018-01-02T06:43:43.656Z,10.49
2018-01-02T06:46:12.105Z,10.36
2018-01-02T06:48:40.954Z,10.13
2018-01-02T06:51:09.332Z,9.58
2018-01-02T06:53:37.683Z,9.62
2018-01-02T06:56:06.042Z,9.75
2018-01-02T06:58:35.104Z,9.72
2018-01-02T07:01:03.566Z,9.78
2018-01-02T07:03:31.939Z,10.01
2018-01-02T07:06:00.289Z,10.04
2018-01-02T07:08:29.496Z,10.35
2018-01-02T07:10:58.005Z,9.94
2018-01-02T07:13:26.372Z,10.20
2018-01-02T07:15:54.756Z,9.93
2018-01-02T07:18:23.104Z,9.69
2018-01-02T07:20:51.512Z,9.60
2018-01-02T07:23:19.883Z,9.48
2018-01-02T07:25:48.287Z,9.37
2018-01-02T07:28:16.627Z,9.50
2018-01-02T07:30:45.036Z,9.28
2018-01-02T07:33:13.381Z,9.46
2018-01-02T07:35:41.734Z,9.15
2018-01-02T07:38:10.471Z,9.56
2018-01-02T07:40:38.831Z,9.67
2018-01-02T07:43:07.196Z,9.52
2018-01-02T07:45:35.586Z,9.40
2018-01-02T07:48:03.934Z,9.36
2018-01-02T07:50:32.680Z,9.16
2018-01-02T07:53:01.027Z,9.18
2018-01-02T07:55:29.378Z,9.47
2018-01-02T07:57:58.224Z,9.48
2018-01-02T08:00:26.585Z,9.54
2018-01-02T08:02:54.984Z,9.48
2018-01-02T08:05:23.355Z,9.61
2018-01-02T08:07:51.701Z,9.58
2018-01-02T08:10:20.109Z,9.66
2018-01-02T08:12:48.456Z,9.85
2018-01-02T08:15:16.842Z,10.30
2018-01-02T08:17:45.189Z,10.16
2018-01-02T08:20:14.036Z,10.28
2018-01-02T08:22:42.395Z,10.50
2018-01-02T08:25:10.765Z,10.53
2018-01-02T08:27:39.117Z,10.26
2018-01-02T08:30:07.960Z,10.10
2018-01-02T08:32:36.308Z,10.34
2018-01-02T08:35:04.668Z,10.31
2018-01-02T08:37:33.416Z,10.27
2018-01-02T08:40:01.760Z,10.00
2018-01-02T08:42:30.159Z,9.87
2018-01-02T08:44:58.500Z,10.10
2018-01-02T08:47:26.927Z,10.40
2018-01-02T08:49:55.283Z,10.65
2018-01-02T08:52:23.634Z,10.62
2018-01-02T08:54:52.367Z,10.41
2018-01-02T08:57:20.727Z,10.57
2018-01-02T08:59:49.076Z,10.70
2018-01-02T09:02:17.487Z,10.76
2018-01-02T09:04:45.851Z,10.65
2018-01-02T09:07:14.206Z,10.80
2018-01-02T09:09:42.576Z,10.65
2018-01-02T09:12:16.902Z,10.85
2018-01-02T09:14:49.447Z,11.12
2018-01-02T09:17:17.787Z,11.24
2018-01-02T09:19:46.188Z,11.03
2018-01-02T09:22:14.568Z,11.00
2018-01-02T09:24:42.935Z,11.17
2018-01-02T09:27:11.295Z,11.27
2018-01-02T09:29:39.651Z,11.30
2018-01-02T09:32:08.383Z,10.97
2018-01-02T09:34:36.722Z,11.02
2018-01-02T09:37:05.083Z,10.89
2018-01-02T09:39:33.908Z,10.75
2018-01-02T09:42:02.308Z,10.75
2018-01-02T09:44:30.663Z,11.16
2018-01-02T09:46:59.060Z,11.20
2018-01-02T09:49:27.450Z,10.86
2018-01-02T09:51:55.799Z,10.92
2018-01-02T09:54:24.168Z,10.86
2018-01-02T09:56:52.584Z,10.79
2018-01-02T09:59:21.039Z,10.65
2018-01-02T10:01:49.387Z,10.93
2018-01-02T10:04:18.124Z,11.29
2018-01-02T10:06:46.468Z,11.20
2018-01-02T10:09:14.884Z,10.95
2018-01-02T10:11:43.263Z,10.97
2018-01-02T10:14:11.617Z,11.06
2018-01-02T10:16:39.973Z,11.05
2018-01-02T10:19:08.711Z,10.88
2018-01-02T10:21:37.086Z,11.12
2018-01-02T10:24:05.437Z,11.05
2018-01-02T10:26:33.850Z,10.99
2018-01-02T10:29:02.216Z,10.92
2018-01-02T10:31:30.604Z,10.94
2018-01-02T10:33:58.967Z,10.85
2018-01-02T10:36:27.363Z,11.48
2018-01-02T10:38:55.709Z,11.74
2018-01-02T10:41:24.195Z,11.90
2018-01-02T10:43:52.572Z,11.76
2018-01-02T10:46:20.923Z,11.82
2018-01-02T10:48:49.765Z,11.83
2018-01-02T10:51:18.132Z,11.20
2018-01-02T10:53:46.503Z,11.34
2018-01-02T10:56:14.915Z,11.54
2018-01-02T10:58:43.287Z,11.19
2018-01-02T11:04:05.824Z,10.82
2018-01-02T11:06:34.252Z,11.06
2018-01-02T11:09:02.616Z,11.03
2018-01-02T11:11:31.895Z,11.15
2018-01-02T11:14:00.280Z,11.48
2018-01-02T11:16:28.664Z,11.54
2018-01-02T11:18:57.040Z,11.26
2018-01-02T11:21:25.401Z,11.02
2018-01-02T11:23:53.762Z,11.29
2018-01-02T11:26:22.152Z,11.41
2018-01-02T11:28:50.518Z,11.35
2018-01-02T11:31:18.931Z,11.11
2018-01-02T11:33:47.324Z,11.12
2018-01-02T11:36:15.676Z,10.97
2018-01-02T11:38:44.034Z,11.31
2018-01-02T11:41:12.392Z,11.31
2018-01-02T11:43:41.296Z,11.55
2018-01-02T11:46:09.736Z,11.28
2018-01-02T11:48:38.195Z,11.48
2018-01-02T11:51:06.575Z,11.31
2018-01-02T11:53:35.059Z,11.46
2018-01-02T11:56:03.536Z,11.25
2018-01-02T11:58:31.893Z,11.44
2018-01-02T12:01:00.240Z,11.66
2018-01-02T12:03:29.005Z,11.46
2018-01-02T12:05:57.368Z,11.30
2018-01-02T12:08:25.743Z,11.21
2018-01-02T12:10:54.104Z,11.47
2018-01-02T12:13:22.526Z,11.76
2018-01-02T12:15:50.895Z,11.79
2018-01-02T12:18:19.268Z,11.65
2018-01-02T12:20:47.641Z,11.86
2018-01-02T12:23:15.999Z,11.57
2018-01-02T12:25:44.387Z,11.81
2018-01-02T12:28:12.747Z,11.77
2018-01-02T12:30:41.107Z,11.87
2018-01-02T12:33:09.932Z,11.83
2018-01-02T12:35:38.304Z,11.84
2018-01-02T12:38:06.671Z,11.92
2018-01-02T12:40:35.031Z,12.05
2018-01-02T12:43:03.404Z,12.23
2018-01-02T12:45:32.158Z,12.44
2018-01-02T12:48:00.507Z,12.45
2018-01-02T12:50:28.932Z,12.43
2018-01-02T12:52:57.288Z,12.40
2018-01-02T12:55:25.763Z,12.59
2018-01-02T12:57:54.572Z,12.32
2018-01-02T13:00:22.931Z,12.18
2018-01-02T13:02:51.309Z,12.03
2018-01-02T13:05:19.683Z,12.24
2018-01-02T13:07:48.185Z,12.09
2018-01-02T13:10:16.583Z,12.11
2018-01-02T13:12:44.923Z,12.12
2018-01-02T13:15:13.299Z,12.01
2018-01-02T13:17:41.666Z,12.20
2018-01-02T13:20:10.078Z,12.04
2018-01-02T13:22:38.441Z,11.91
2018-01-02T13:25:06.950Z,11.95
2018-01-02T13:27:35.814Z,11.86
2018-01-02T13:30:04.194Z,12.09
2018-01-02T13:32:32.561Z,12.22
2018-01-02T13:35:00.948Z,12.10
2018-01-02T13:37:29.304Z,11.88
2018-01-02T13:39:57.647Z,12.29
2018-01-02T13:42:26.407Z,12.28
2018-01-02T13:44:54.872Z,12.24
2018-01-02T13:47:23.253Z,12.06
2018-01-02T13:49:51.607Z,12.07
2018-01-02T13:52:19.961Z,12.14
2018-01-02T13:54:48.705Z,12.43
2018-01-02T13:57:17.176Z,12.66
2018-01-02T13:59:45.554Z,12.63
2018-01-02T14:02:13.911Z,12.43
2018-01-02T14:04:42.307Z,12.46
2018-01-02T14:07:10.667Z,12.42
2018-01-02T14:09:39.020Z,12.54
2018-01-02T14:12:07.847Z,12.43
2018-01-02T14:14:36.191Z,12.16
2018-01-02T14:17:04.552Z,12.47
2018-01-02T14:19:32.938Z,12.75
2018-01-02T14:22:01.771Z,12.74
2018-01-02T14:24:30.168Z,12.69
2018-01-02T14:26:58.627Z,12.57
2018-01-02T14:29:26.981Z,12.44
2018-01-02T14:31:55.332Z,12.27
2018-01-02T14:34:24.185Z,12.28
2018-01-02T14:36:52.533Z,12.17
2018-01-02T14:39:20.887Z,11.81
2018-01-02T14:41:49.627Z,11.85
2018-01-02T14:44:18.008Z,11.78
2018-01-02T14:46:46.364Z,11.99
2018-01-02T14:49:14.772Z,11.47
2018-01-02T14:51:43.119Z,11.58
2018-01-02T14:54:11.511Z,11.73
2018-01-02T14:56:39.873Z,11.78
2018-01-02T14:59:08.240Z,11.38
2018-01-02T15:01:36.665Z,11.77
2018-01-02T15:04:05.011Z,11.72
2018-01-02T15:06:33.408Z,11.73
2018-01-02T15:09:01.796Z,11.88
2018-01-02T15:11:30.154Z,11.60
2018-01-02T15:13:58.543Z,11.37
2018-01-02T15:16:26.901Z,11.59
2018-01-02T15:18:55.316Z,11.58
2018-01-02T15:21:23.856Z,11.24
2018-01-02T15:23:52.199Z,11.22
2018-01-02T15:26:20.569Z,11.31
2018-01-02T15:28:49.035Z,11.38
2018-01-02T15:31:17.401Z,11.28
2018-01-02T15:33:45.753Z,11.35
2018-01-02T15:36:14.204Z,11.01
2018-01-02T15:38:43.065Z,10.92
2018-01-02T15:41:11.444Z,10.86
2018-01-02T15:43:39.952Z,10.91
2018-01-02T15:46:08.709Z,10.89
2018-01-02T15:48:37.051Z,10.95
2018-01-02T15:51:05.464Z,10.86
2018-01-02T15:53:33.808Z,11.27
2018-01-02T15:56:02.279Z,11.45
2018-01-02T15:58:30.676Z,11.48
2018-01-02T16:00:59.026Z,11.55
2018-01-02T16:03:27.775Z,11.57
2018-01-02T16:05:56.150Z,11.56
2018-01-02T16:08:24.491Z,11.37
2018-01-02T16:10:52.891Z,11.41
2018-01-02T16:13:21.248Z,11.49
2018-01-02T16:15:49.620Z,11.48
2018-01-02T16:18:18.012Z,11.40
2018-01-02T16:20:46.359Z,11.47
2018-01-02T16:23:14.801Z,11.52
2018-01-02T16:25:43.155Z,11.53
2018-01-02T16:28:11.511Z,11.49
2018-01-02T16:30:39.916Z,11.48
2018-01-02T16:33:08.322Z,11.58
2018-01-02T16:35:36.704Z,11.53
2018-01-02T16:38:05.073Z,11.47
2018-01-02T16:40:33.484Z,11.42
2018-01-02T16:43:01.847Z,11.16
2018-01-02T16:45:30.227Z,11.02
2018-01-02T16:47:58.565Z,10.86
2018-01-02T16:50:27.067Z,10.94
2018-01-02T16:52:55.428Z,11.08
2018-01-02T16:55:23.795Z,11.13
2018-01-02T16:57:52.203Z,11.12
2018-01-02T17:00:20.523Z,11.20
2018-01-02T17:02:49.910Z,11.11
2018-01-02T17:05:18.315Z,11.23
2018-01-02T17:07:47.151Z,11.27
2018-01-02T17:10:15.513Z,11.24
2018-01-02T17:12:43.909Z,11.30
2018-01-02T17:15:12.255Z,11.53
2018-01-02T17:17:40.672Z,11.48
2018-01-02T17:20:09.046Z,11.14
2018-01-02T17:22:37.394Z,11.22
2018-01-02T17:25:05.810Z,11.01
2018-01-02T17:27:34.156Z,11.35
2018-01-02T17:30:02.536Z,11.45
2018-01-02T17:32:30.896Z,11.63
2018-01-02T17:34:59.307Z,11.33
2018-01-02T17:37:27.672Z,11.30
2018-01-02T17:39:56.025Z,11.33
2018-01-02T17:42:24.917Z,11.40
2018-01-02T17:44:53.667Z,11.40
2018-01-02T17:47:22.015Z,11.27
2018-01-02T17:49:50.362Z,11.43
2018-01-02T17:52:19.117Z,11.40
2018-01-02T17:54:47.464Z,11.56
2018-01-02T17:57:15.821Z,11.58
2018-01-02T17:59:44.169Z,11.43
2018-01-02T18:02:12.970Z,11.35
2018-01-02T18:04:41.840Z,11.41
2018-01-02T18:07:10.196Z,11.42
2018-01-02T18:09:38.564Z,11.22
2018-01-02T18:12:06.914Z,11.39
2018-01-02T18:14:35.282Z,11.52
2018-01-02T18:17:03.649Z,11.64
2018-01-02T18:19:33.205Z,11.36
2018-01-02T18:22:01.583Z,11.37
2018-01-02T18:24:29.962Z,11.32
2018-01-02T18:26:59.175Z,11.63
2018-01-02T18:29:27.551Z,11.68
2018-01-02T18:31:55.916Z,11.68
2018-01-02T18:34:24.396Z,11.67
2018-01-02T18:36:52.839Z,11.70
2018-01-02T18:39:21.164Z,11.78
2018-01-02T18:41:49.519Z,11.75
2018-01-02T18:44:17.875Z,11.76
2018-01-02T18:46:46.218Z,11.70
2018-01-02T18:49:14.753Z,11.39
2018-01-02T18:51:43.156Z,11.63
2018-01-02T18:54:11.523Z,11.63
2018-01-02T18:56:39.904Z,11.64
2018-01-02T18:59:08.260Z,11.63
2018-01-02T19:01:36.680Z,11.77
2018-01-02T19:04:05.044Z,11.46
2018-01-02T19:06:33.419Z,11.46
2018-01-02T19:09:01.801Z,11.41
2018-01-02T19:11:30.185Z,11.47
2018-01-02T19:13:58.546Z,11.52
2018-01-02T19:16:26.882Z,11.57
2018-01-02T19:18:55.772Z,11.60
2018-01-02T19:21:24.151Z,11.74
2018-01-02T19:23:52.992Z,11.57
2018-01-02T19:26:21.390Z,11.71
2018-01-02T19:28:49.870Z,11.71
2018-01-02T19:31:18.235Z,11.79
2018-01-02T19:33:46.632Z,11.85
2018-01-02T19:36:14.984Z,11.54
2018-01-02T19:38:43.340Z,11.46
2018-01-02T19:41:11.683Z,11.74
2018-01-02T19:43:40.040Z,11.67
2018-01-02T19:46:08.409Z,11.69
2018-01-02T19:48:36.771Z,11.73
2018-01-02T19:51:05.172Z,11.84
2018-01-02T19:53:33.537Z,11.65
2018-01-02T19:56:01.963Z,11.64
2018-01-02T19:58:30.726Z,11.64
2018-01-02T20:00:59.183Z,11.59
2018-01-02T20:03:27.536Z,11.69
2018-01-02T20:05:55.956Z,11.61
2018-01-02T20:08:24.308Z,11.82
2018-01-02T20:10:52.709Z,11.80
2018-01-02T20:13:21.107Z,11.91
2018-01-02T20:15:49.759Z,12.00
2018-01-02T20:18:23.751Z,11.91
2018-01-02T20:20:52.156Z,11.80
2018-01-02T20:23:20.535Z,11.72
2018-01-02T20:25:48.967Z,11.68
2018-01-02T20:28:17.703Z,11.43
2018-01-02T20:30:46.076Z,11.58
2018-01-02T20:33:14.460Z,11.53
2018-01-02T20:35:42.871Z,11.57
2018-01-02T20:38:11.291Z,11.53
2018-01-02T20:40:39.708Z,11.72
2018-01-02T20:43:08.123Z,11.59
2018-01-02T20:45:36.968Z,11.52
2018-01-02T20:48:05.336Z,11.17
2018-01-02T20:50:34.020Z,11.20
2018-01-02T20:53:02.416Z,11.24
2018-01-02T20:55:30.785Z,11.07
2018-01-02T20:57:59.171Z,11.03
2018-01-02T21:00:27.547Z,10.65
2018-01-02T21:02:55.905Z,10.79
2018-01-02T21:05:24.334Z,10.94
2018-01-02T21:07:52.746Z,10.82
2018-01-02T21:10:21.115Z,10.70
2018-01-02T21:12:49.463Z,10.59
2018-01-02T21:15:17.812Z,10.39
2018-01-02T21:17:46.166Z,10.41
2018-01-02T21:20:14.623Z,10.23
2018-01-02T21:22:43.384Z,10.18
2018-01-02T21:25:11.735Z,10.22
2018-01-02T21:27:40.141Z,10.00
2018-01-02T21:30:08.500Z,9.81
2018-01-02T21:32:36.892Z,9.78
2018-01-02T21:35:05.270Z,9.93
2018-01-02T21:37:33.648Z,9.87
2018-01-02T21:40:02.036Z,10.05
2018-01-02T21:42:30.418Z,10.03
2018-01-02T21:44:58.776Z,9.97
2018-01-02T21:47:27.156Z,9.97
2018-01-02T21:49:55.612Z,9.74
2018-01-02T21:52:24.027Z,10.01
2018-01-02T21:54:52.535Z,10.06
2018-01-02T21:57:20.987Z,10.16
2018-01-02T21:59:49.695Z,9.91
2018-01-02T22:02:18.038Z,9.97
2018-01-02T22:04:46.488Z,10.02
2018-01-02T22:07:15.597Z,9.84
2018-01-02T22:09:43.955Z,9.91
2018-01-02T22:12:12.375Z,9.93
2018-01-02T22:14:40.732Z,10.07
2018-01-02T22:17:09.131Z,10.09
2018-01-02T22:19:37.516Z,9.64
2018-01-02T22:22:05.909Z,9.69
2018-01-02T22:24:34.263Z,9.74
2018-01-02T22:27:02.624Z,9.47
2018-01-02T22:29:31.139Z,9.53
2018-01-02T22:31:59.513Z,9.45
2018-01-02T22:34:27.864Z,9.27
2018-01-02T22:36:56.235Z,9.30
2018-01-02T22:39:24.643Z,9.09
2018-01-02T22:41:53.139Z,9.08
2018-01-02T22:44:21.485Z,8.97
2018-01-02T22:46:49.885Z,8.83
2018-01-02T22:49:18.303Z,8.75
2018-01-02T22:51:47.111Z,8.90
2018-01-02T22:54:15.846Z,8.76
2018-01-02T22:56:44.210Z,8.65
2018-01-02T22:59:12.647Z,8.60
2018-01-02T23:01:41.078Z,8.69
2018-01-02T23:04:09.428Z,8.65
2018-01-02T23:06:37.774Z,8.59
2018-01-02T23:09:06.534Z,8.69
2018-01-02T23:11:34.923Z,8.60
2018-01-02T23:14:03.302Z,8.75
2018-01-02T23:16:31.669Z,8.60
2018-01-02T23:19:00.118Z,8.45
2018-01-02T23:21:28.525Z,8.33
2018-01-02T23:23:56.875Z,7.99
2018-01-02T23:26:25.244Z,8.04
2018-01-02T23:28:53.596Z,8.16
2018-01-02T23:31:22.445Z,8.40
2018-01-02T23:33:50.791Z,8.47
2018-01-02T23:36:19.147Z,8.17
2018-01-02T23:38:47.518Z,8.31
2018-01-02T23:41:15.959Z,8.34
2018-01-02T23:43:44.327Z,8.04
2018-01-02T23:46:12.679Z,8.23
2018-01-02T23:48:41.023Z,8.00
2018-01-02T23:51:09.468Z,7.99
2018-01-02T23:53:37.871Z,7.95
2018-01-02T23:56:06.335Z,7.90
2018-01-02T23:58:34.684Z,7.93
